RCH2190 ROAH-RPLB
Flight info
| Callsign | RCH2190 |
|---|---|
| Flight time | N/A |
| Altitude | 39000 |
| Route | GANJU Y576 GANAS Y62 MJC B462 LAO M646 SANRO B591 TATIL W16 CIA TR24 KIBOK KIBOK1G |
| Aircraft | B738/M-SDE2E3FGHIRWXY/LB1 |
Departure
| Time | N/A |
|---|---|
| Airport | Naha International Airport (ROAH) |
Arrival
| Time | 2026-05-05 07:28 |
|---|---|
| Airport | Subic Bay International Airport / Naval Air Station Cubi Point (RPLB) |
| Time | Latitude | Longitude | Altitude | Speed | Heading |
|---|---|---|---|---|---|
| 2026-05-05 06:57 | 17.34365 | 120.43037 | 38890 ft | 457 kts | 190° |
| 2026-05-05 06:57 | 17.31198 | 120.42664 | 38886 ft | 456 kts | 190° |
| 2026-05-05 06:58 | 17.24900 | 120.41923 | 38876 ft | 457 kts | 190° |
| 2026-05-05 06:58 | 17.18545 | 120.41177 | 38896 ft | 456 kts | 190° |
| 2026-05-05 06:59 | 17.13283 | 120.40559 | 38889 ft | 458 kts | 190° |
| 2026-05-05 06:59 | 17.05872 | 120.39687 | 38898 ft | 458 kts | 190° |
| 2026-05-05 07:00 | 16.99543 | 120.38944 | 38912 ft | 457 kts | 190° |
| 2026-05-05 07:00 | 16.93189 | 120.38199 | 38896 ft | 457 kts | 190° |
| 2026-05-05 07:01 | 16.86879 | 120.37459 | 38906 ft | 456 kts | 190° |
| 2026-05-05 07:01 | 16.80583 | 120.36721 | 38904 ft | 455 kts | 190° |
| 2026-05-05 07:02 | 16.75302 | 120.36103 | 38901 ft | 455 kts | 189° |
| 2026-05-05 07:02 | 16.67868 | 120.35344 | 38899 ft | 456 kts | 187° |
| 2026-05-05 07:03 | 16.61533 | 120.34924 | 38903 ft | 456 kts | 186° |
| 2026-05-05 07:03 | 16.55136 | 120.34534 | 38891 ft | 456 kts | 186° |
| 2026-05-05 07:04 | 16.48795 | 120.34135 | 38892 ft | 455 kts | 186° |
| 2026-05-05 07:04 | 16.42455 | 120.33718 | 38895 ft | 455 kts | 186° |
| 2026-05-05 07:05 | 16.36112 | 120.33292 | 38883 ft | 454 kts | 186° |
| 2026-05-05 07:05 | 16.29826 | 120.32867 | 38870 ft | 452 kts | 186° |
| 2026-05-05 07:06 | 16.23488 | 120.32434 | 38861 ft | 454 kts | 186° |
| 2026-05-05 07:06 | 16.17188 | 120.32004 | 38857 ft | 454 kts | 186° |
| 2026-05-05 07:07 | 16.10860 | 120.31572 | 38852 ft | 454 kts | 186° |
| 2026-05-05 07:07 | 16.01381 | 120.31039 | 37936 ft | 455 kts | 183° |
| 2026-05-05 07:08 | 15.98262 | 120.31076 | 36983 ft | 451 kts | 180° |
| 2026-05-05 07:08 | 15.95134 | 120.31261 | 35782 ft | 452 kts | 178° |
| 2026-05-05 07:08 | 15.91988 | 120.31593 | 34146 ft | 460 kts | 175° |
| 2026-05-05 07:08 | 15.88817 | 120.32024 | 32514 ft | 466 kts | 176° |
| 2026-05-05 07:09 | 15.86647 | 120.32119 | 31493 ft | 467 kts | 184° |
| 2026-05-05 07:09 | 15.76473 | 120.29340 | 27432 ft | 461 kts | 196° |
| 2026-05-05 07:10 | 15.73350 | 120.28711 | 26635 ft | 458 kts | 187° |
| 2026-05-05 07:10 | 15.70192 | 120.28610 | 26054 ft | 456 kts | 179° |
| 2026-05-05 07:10 | 15.66975 | 120.28844 | 25412 ft | 462 kts | 175° |
| 2026-05-05 07:10 | 15.64848 | 120.29086 | 24956 ft | 458 kts | 174° |
| 2026-05-05 07:11 | 15.60666 | 120.29668 | 23905 ft | 451 kts | 172° |
| 2026-05-05 07:11 | 15.57607 | 120.30144 | 23144 ft | 445 kts | 172° |
| 2026-05-05 07:11 | 15.55572 | 120.30473 | 22668 ft | 441 kts | 172° |
| 2026-05-05 07:11 | 15.51628 | 120.31125 | 21768 ft | 432 kts | 172° |
| 2026-05-05 07:12 | 15.48678 | 120.31616 | 21090 ft | 426 kts | 171° |
| 2026-05-05 07:12 | 15.45753 | 120.32102 | 20411 ft | 426 kts | 171° |
| 2026-05-05 07:12 | 15.42816 | 120.32588 | 19719 ft | 425 kts | 171° |
| 2026-05-05 07:12 | 15.39902 | 120.33067 | 19032 ft | 419 kts | 171° |
| 2026-05-05 07:13 | 15.37981 | 120.33382 | 18581 ft | 414 kts | 171° |
| 2026-05-05 07:13 | 15.34219 | 120.33998 | 17830 ft | 408 kts | 171° |
| 2026-05-05 07:15 | 15.13172 | 120.37416 | 12756 ft | 381 kts | 170° |
| 2026-05-05 07:15 | 15.10562 | 120.37839 | 12138 ft | 374 kts | 170° |
| 2026-05-05 07:15 | 15.07175 | 120.38387 | 11374 ft | 366 kts | 169° |
| 2026-05-05 07:16 | 15.04667 | 120.38793 | 10924 ft | 360 kts | 169° |
| 2026-05-05 07:16 | 15.02224 | 120.39050 | 10725 ft | 343 kts | 176° |
| 2026-05-05 07:16 | 14.99918 | 120.38802 | 10607 ft | 327 kts | 194° |
| 2026-05-05 07:16 | 14.98545 | 120.38146 | 10538 ft | 319 kts | 211° |
| 2026-05-05 07:17 | 14.97440 | 120.37167 | 10443 ft | 312 kts | 226° |
| 2026-05-05 07:17 | 14.95895 | 120.34602 | 10234 ft | 315 kts | 242° |
| 2026-05-05 07:17 | 14.94939 | 120.32635 | 10012 ft | 305 kts | 241° |
| 2026-05-05 07:17 | 14.94618 | 120.31982 | 9887 ft | 303 kts | 241° |
| 2026-05-05 07:18 | 14.92682 | 120.28117 | 9097 ft | 299 kts | 240° |
| 2026-05-05 07:18 | 14.91729 | 120.26218 | 8677 ft | 297 kts | 240° |
| 2026-05-05 07:18 | 14.90793 | 120.24351 | 8324 ft | 294 kts | 241° |
| 2026-05-05 07:18 | 14.89853 | 120.22469 | 7923 ft | 290 kts | 240° |
| 2026-05-05 07:19 | 14.89249 | 120.21259 | 7714 ft | 288 kts | 241° |
| 2026-05-05 07:19 | 14.88322 | 120.19398 | 7331 ft | 286 kts | 240° |
| 2026-05-05 07:19 | 14.87722 | 120.18192 | 7096 ft | 285 kts | 241° |
| 2026-05-05 07:19 | 14.86517 | 120.15774 | 6602 ft | 283 kts | 241° |
| 2026-05-05 07:20 | 14.85317 | 120.13364 | 6130 ft | 278 kts | 241° |
| 2026-05-05 07:20 | 14.84448 | 120.11623 | 5766 ft | 270 kts | 241° |
| 2026-05-05 07:20 | 14.83609 | 120.09940 | 5505 ft | 261 kts | 241° |
| 2026-05-05 07:20 | 14.82795 | 120.08315 | 5417 ft | 244 kts | 240° |
| 2026-05-05 07:21 | 14.82247 | 120.07343 | 5365 ft | 233 kts | 233° |
| 2026-05-05 07:21 | 14.81920 | 120.06894 | 5335 ft | 227 kts | 226° |
| 2026-05-05 07:21 | 14.78927 | 120.04520 | 5144 ft | 208 kts | 212° |
| 2026-05-05 07:22 | 14.78151 | 120.03931 | 5113 ft | 208 kts | 211° |
| 2026-05-05 07:22 | 14.75946 | 120.03175 | 4988 ft | 198 kts | 168° |
| 2026-05-05 07:22 | 14.74668 | 120.03616 | 4804 ft | 193 kts | 148° |
| 2026-05-05 07:22 | 14.73586 | 120.04417 | 4588 ft | 189 kts | 133° |
| 2026-05-05 07:23 | 14.72698 | 120.05432 | 4392 ft | 187 kts | 127° |
| 2026-05-05 07:23 | 14.71848 | 120.06454 | 4225 ft | 189 kts | 129° |
| 2026-05-05 07:23 | 14.71002 | 120.07498 | 4050 ft | 188 kts | 121° |
| 2026-05-05 07:23 | 14.70595 | 120.08738 | 3942 ft | 184 kts | 88° |
| 2026-05-05 07:24 | 14.70960 | 120.10013 | 3692 ft | 189 kts | 63° |
| 2026-05-05 07:24 | 14.71620 | 120.11214 | 3342 ft | 195 kts | 63° |
| 2026-05-05 07:24 | 14.72267 | 120.12467 | 3053 ft | 197 kts | 64° |
| 2026-05-05 07:24 | 14.72894 | 120.13718 | 2788 ft | 196 kts | 64° |
| 2026-05-05 07:25 | 14.73531 | 120.14973 | 2481 ft | 195 kts | 62° |
| 2026-05-05 07:25 | 14.74132 | 120.16149 | 2245 ft | 180 kts | 62° |
| 2026-05-05 07:25 | 14.74704 | 120.17263 | 1940 ft | 169 kts | 60° |
| 2026-05-05 07:25 | 14.74884 | 120.17619 | 1853 ft | 165 kts | 60° |
| 2026-05-05 07:26 | 14.75060 | 120.17965 | 1775 ft | 161 kts | 60° |
| 2026-05-05 07:26 | 14.75713 | 120.19253 | 1507 ft | 144 kts | 60° |
| 2026-05-05 07:26 | 14.77095 | 120.21962 | 897 ft | 138 kts | 63° |
| 2026-05-05 07:27 | 14.77540 | 120.22836 | 713 ft | 137 kts | 62° |
| 2026-05-05 07:27 | 14.77983 | 120.23699 | 511 ft | 135 kts | 62° |
| 2026-05-05 07:27 | 14.78418 | 120.24554 | 359 ft | 135 kts | 63° |
| 2026-05-05 07:27 | 14.78754 | 120.25447 | 196 ft | 132 kts | 70° |
| 2026-05-05 07:28 | 14.79585 | 120.27554 | 68 ft | 17 kts | 128° |
| 2026-05-05 07:29 | 14.79479 | 120.27572 | 68 ft | 16 kts | 222° |
| 2026-05-05 07:29 | 14.79428 | 120.27466 | 68 ft | 17 kts | 248° |
| 2026-05-05 07:29 | 14.79383 | 120.27348 | 67 ft | 17 kts | 248° |
| 2026-05-05 07:29 | 14.79335 | 120.27228 | 67 ft | 18 kts | 247° |
| 2026-05-05 07:30 | 14.79283 | 120.27103 | 67 ft | 19 kts | 246° |
| 2026-05-05 07:30 | 14.79174 | 120.26834 | 67 ft | 21 kts | 247° |
| 2026-05-05 07:30 | 14.79088 | 120.26779 | 67 ft | 11 kts | 159° |
| 2026-05-05 07:31 | 14.79058 | 120.26759 | 67 ft | 8 kts | 245° |
| 2026-05-05 07:31 | 14.79049 | 120.26739 | 67 ft | 9 kts | 247° |
| 2026-05-05 07:31 | 14.79038 | 120.26711 | 67 ft | 0 kts | 247° |